Time;durP1;ratioP1;P1;durP2;ratioP2;P2;SDS_P1;SDS_P2;PMS_P1;PMS_P2;Temp;Humidity;BMP_temperature;BMP_pressure;BME280_temperature;BME280_humidity;BME280_pressure;Samples;Min_cycle;Max_cycle;Signal;HPM_P1;HPM_P2
2022/07/25 00:00:23;;;;;;;5.54;5.06;;;;;;;21.23;65.40;100240.95;455315;116;923091;-77
2022/07/25 00:01:28;;;;;;;5.91;5.06;;;;;;;21.22;65.16;100228.23;446696;118;923086;-76
2022/07/25 00:02:32;;;;;;;4.61;4.21;;;;;;;21.20;64.98;100236.00;448065;116;923090;-76
2022/07/25 00:03:36;;;;;;;5.50;4.74;;;;;;;21.17;64.89;100240.17;455205;116;930540;-76
2022/07/25 00:04:41;;;;;;;5.25;4.77;;;;;;;21.13;64.81;100233.53;455142;116;923392;-76
2022/07/25 00:05:45;;;;;;;5.06;4.67;;;;;;;21.10;64.86;100238.84;455248;116;922578;-77
2022/07/25 00:06:48;;;;;;;5.11;4.67;;;;;;;21.05;64.77;100234.19;454255;116;930537;-77
2022/07/25 00:07:51;;;;;;;5.71;5.13;;;;;;;21.01;64.80;100243.36;450260;118;922559;-77
2022/07/25 00:08:54;;;;;;;5.33;4.92;;;;;;;20.96;64.86;100235.92;442696;120;922565;-77
2022/07/25 00:09:57;;;;;;;5.28;4.83;;;;;;;20.92;64.93;100237.63;450270;118;922525;-77
2022/07/25 00:11:00;;;;;;;5.29;4.91;;;;;;;20.89;65.00;100231.86;450214;118;922437;-77
2022/07/25 00:12:03;;;;;;;5.33;4.93;;;;;;;20.86;65.05;100235.19;450221;118;922992;-77
2022/07/25 00:13:08;;;;;;;5.36;4.91;;;;;;;20.81;65.10;100227.75;450039;118;922640;-77
2022/07/25 00:14:11;;;;;;;4.96;4.65;;;;;;;20.79;65.28;100224.44;442666;120;922583;-77
2022/07/25 00:15:14;;;;;;;4.89;4.51;;;;;;;20.78;65.55;100223.61;459679;114;922507;-77
2022/07/25 00:16:18;;;;;;;5.26;4.91;;;;;;;20.80;65.78;100234.41;462277;114;922641;-77
2022/07/25 00:17:21;;;;;;;5.02;4.61;;;;;;;20.82;65.91;100232.19;462374;114;923013;-77
2022/07/25 00:18:24;;;;;;;4.95;4.65;;;;;;;20.85;66.02;100225.22;462383;114;922531;-77
2022/07/25 00:19:27;;;;;;;5.33;4.87;;;;;;;20.88;66.04;100230.20;462397;114;922612;-77
2022/07/25 00:20:30;;;;;;;5.08;4.63;;;;;;;20.90;66.09;100230.70;462386;114;922503;-77
2022/07/25 00:21:34;;;;;;;5.14;4.74;;;;;;;20.92;66.05;100231.26;462385;114;922915;-77
2022/07/25 00:22:37;;;;;;;5.52;5.06;;;;;;;20.92;65.88;100226.55;462392;114;923080;-77
2022/07/25 00:23:40;;;;;;;5.22;4.77;;;;;;;20.93;65.73;100221.83;462462;114;922582;-77
2022/07/25 00:24:43;;;;;;;4.94;4.62;;;;;;;20.91;65.58;100224.88;462430;114;922712;-77
2022/07/25 00:25:46;;;;;;;4.97;4.61;;;;;;;20.89;65.62;100218.00;462433;114;922605;-77
2022/07/25 00:26:49;;;;;;;5.82;5.34;;;;;;;20.86;65.57;100221.34;459891;114;922611;-77
2022/07/25 00:27:52;;;;;;;5.34;4.92;;;;;;;20.83;65.65;100217.22;459896;115;922548;-77
2022/07/25 00:28:55;;;;;;;5.42;5.08;;;;;;;20.81;65.75;100224.98;459887;115;922541;-77
2022/07/25 00:29:58;;;;;;;4.68;4.24;;;;;;;20.80;65.88;100223.33;455320;115;923114;-77
2022/07/25 00:31:01;;;;;;;5.06;4.75;;;;;;;20.80;65.98;100218.61;454634;116;922633;-77
2022/07/25 00:32:05;;;;;;;5.60;5.14;;;;;;;20.80;66.00;100223.33;465393;114;923118;-77
2022/07/25 00:33:08;;;;;;;5.39;4.78;;;;;;;20.79;65.89;100222.50;465311;114;922563;-77
2022/07/25 00:34:11;;;;;;;4.57;4.27;;;;;;;20.77;65.75;100224.75;460426;112;922604;-77
2022/07/25 00:35:14;;;;;;;4.93;4.21;;;;;;;20.74;65.58;100230.03;457355;116;922570;-77
2022/07/25 00:36:18;;;;;;;5.46;5.03;;;;;;;20.71;65.64;100225.08;457239;116;922582;-77
2022/07/25 00:37:21;;;;;;;5.24;4.84;;;;;;;20.68;65.56;100232.02;457367;116;922558;-77
2022/07/25 00:38:24;;;;;;;6.60;4.75;;;;;;;20.65;65.59;100229.01;457368;116;922588;-77
2022/07/25 00:39:27;;;;;;;5.09;4.69;;;;;;;20.61;65.72;100230.71;457290;116;923051;-77
2022/07/25 00:40:31;;;;;;;5.49;4.52;;;;;;;20.60;65.87;100229.88;457027;116;922543;-77
2022/07/25 00:41:35;;;;;;;5.24;4.79;;;;;;;20.61;66.10;100226.00;457279;116;922892;-77
2022/07/25 00:42:38;;;;;;;5.12;4.75;;;;;;;20.61;66.24;100226.00;457238;116;922639;-77
2022/07/25 00:43:44;;;;;;;5.97;4.79;;;;;;;20.63;66.25;100232.06;457278;115;930512;-76
2022/07/25 00:44:47;;;;;;;4.60;4.23;;;;;;;20.64;66.30;100228.17;457108;116;922800;-77
2022/07/25 00:45:50;;;;;;;6.20;5.54;;;;;;;20.60;66.14;100224.34;463604;114;922680;-77
2022/07/25 00:46:54;;;;;;;5.25;4.83;;;;;;;20.60;66.14;100224.34;465371;114;923305;-78
2022/07/25 00:47:57;;;;;;;4.94;4.46;;;;;;;20.60;66.14;100229.88;465328;114;923055;-77
2022/07/25 00:49:00;;;;;;;5.83;5.34;;;;;;;20.58;66.15;100228.50;465404;114;922581;-77
2022/07/25 00:50:04;;;;;;;5.35;4.97;;;;;;;20.57;66.20;100226.84;465458;114;922657;-77
2022/07/25 00:51:08;;;;;;;5.22;4.86;;;;;;;20.55;66.21;100229.92;465349;114;923058;-77
2022/07/25 00:52:12;;;;;;;5.12;4.69;;;;;;;20.54;66.24;100224.66;465289;114;930467;-77
2022/07/25 00:53:15;;;;;;;5.45;4.86;;;;;;;20.53;66.31;100223.84;465356;114;923190;-77
2022/07/25 00:54:19;;;;;;;5.40;5.00;;;;;;;20.53;66.49;100223.84;465426;114;931404;-77
2022/07/25 00:55:24;;;;;;;5.26;4.92;;;;;;;20.55;66.65;100229.09;465366;114;922733;-77
2022/07/25 00:56:28;;;;;;;5.37;4.91;;;;;;;20.56;66.68;100217.73;465003;114;930544;-77
2022/07/25 00:57:31;;;;;;;5.85;4.46;;;;;;;20.58;66.81;100226.56;465424;114;923125;-78
2022/07/25 00:58:34;;;;;;;6.85;5.10;;;;;;;20.59;66.85;100222.69;465388;114;922492;-77
2022/07/25 00:59:37;;;;;;;4.97;4.61;;;;;;;20.61;66.89;100222.40;465393;112;923079;-77
2022/07/25 01:00:41;;;;;;;5.06;4.69;;;;;;;20.62;66.91;100226.83;465380;114;922623;-77
2022/07/25 01:01:46;;;;;;;5.39;5.03;;;;;;;20.63;66.93;100223.75;465360;114;922548;-77
2022/07/25 01:02:49;;;;;;;5.66;4.82;;;;;;;20.62;66.90;100216.55;465131;114;922548;-77
2022/07/25 01:03:53;;;;;;;5.53;5.08;;;;;;;20.64;67.04;100230.12;465256;114;922627;-77
2022/07/25 01:04:57;;;;;;;15.42;5.67;;;;;;;20.65;66.99;100221.52;465394;114;922626;-77
2022/07/25 01:06:00;;;;;;;5.02;4.68;;;;;;;20.66;67.02;100216.81;465272;114;922437;-77
2022/07/25 01:07:04;;;;;;;6.37;5.22;;;;;;;20.68;67.04;100222.88;461861;114;923389;-77
2022/07/25 01:08:08;;;;;;;5.41;5.01;;;;;;;20.69;67.05;100216.22;457329;116;922819;-77
2022/07/25 01:09:13;;;;;;;5.21;4.81;;;;;;;20.70;67.08;100218.71;457253;115;923156;-77
2022/07/25 01:10:16;;;;;;;6.64;4.57;;;;;;;20.72;67.05;100221.20;457128;116;922532;-77
2022/07/25 01:11:21;;;;;;;5.10;4.62;;;;;;;20.73;66.90;100226.42;457332;116;922882;-78
2022/07/25 01:12:24;;;;;;;5.05;4.61;;;;;;;20.75;66.77;100223.37;457285;116;922541;-77
2022/07/25 01:13:27;;;;;;;4.87;4.54;;;;;;;20.73;66.56;100222.86;457384;116;922873;-77
2022/07/25 01:14:30;;;;;;;5.07;4.67;;;;;;;20.71;66.45;100228.68;457675;114;922611;-77
2022/07/25 01:15:33;;;;;;;5.42;4.92;;;;;;;20.68;66.37;100234.78;465335;114;922980;-77
2022/07/25 01:16:36;;;;;;;4.92;4.41;;;;;;;20.66;66.37;100236.20;465296;114;922684;-77
2022/07/25 01:17:39;;;;;;;5.38;4.98;;;;;;;20.62;66.37;100233.17;465371;114;922581;-77
2022/07/25 01:18:42;;;;;;;5.47;5.09;;;;;;;20.59;66.41;100230.16;465315;114;922939;-76
2022/07/25 01:19:46;;;;;;;5.02;4.64;;;;;;;20.56;66.45;100236.30;465297;114;922615;-76
2022/07/25 01:20:49;;;;;;;5.88;5.45;;;;;;;20.54;66.48;100232.97;465240;114;922975;-78
2022/07/25 01:21:52;;;;;;;5.31;4.91;;;;;;;20.51;66.50;100233.56;465244;114;930625;-78
2022/07/25 01:22:56;;;;;;;5.83;5.42;;;;;;;20.48;66.60;100234.95;465318;114;922486;-78
2022/07/25 01:23:59;;;;;;;5.29;4.87;;;;;;;20.47;66.75;100229.70;465236;114;922539;-78
2022/07/25 01:25:02;;;;;;;7.22;4.78;;;;;;;20.47;66.86;100229.70;465338;114;922622;-76
2022/07/25 01:26:06;;;;;;;5.27;4.91;;;;;;;20.47;66.98;100233.30;465267;114;923184;-78
2022/07/25 01:27:09;;;;;;;5.37;4.83;;;;;;;20.49;67.08;100227.48;465276;114;930557;-78
2022/07/25 01:28:14;;;;;;;5.97;5.43;;;;;;;20.49;67.19;100233.84;464364;113;922698;-78
2022/07/25 01:29:17;;;;;;;5.51;5.18;;;;;;;20.50;67.19;100231.91;465529;114;922535;-78
2022/07/25 01:30:23;;;;;;;6.72;5.68;;;;;;;20.50;67.05;100226.37;464745;114;923066;-76
2022/07/25 01:31:26;;;;;;;5.81;5.34;;;;;;;20.49;66.96;100233.02;465299;114;930920;-78
2022/07/25 01:32:29;;;;;;;5.19;4.81;;;;;;;20.47;66.95;100232.47;465516;114;930439;-75
2022/07/25 01:33:32;;;;;;;5.82;5.41;;;;;;;20.45;67.00;100231.95;465483;114;922954;-75
2022/07/25 01:34:35;;;;;;;5.26;4.90;;;;;;;20.44;67.02;100236.66;465513;114;922545;-76
2022/07/25 01:35:38;;;;;;;5.86;5.46;;;;;;;20.43;67.15;100232.23;456833;116;923129;-78
2022/07/25 01:36:43;;;;;;;5.77;5.34;;;;;;;20.41;67.14;100231.67;456911;114;922648;-78
2022/07/25 01:37:46;;;;;;;5.98;5.58;;;;;;;20.42;67.26;100235.28;465532;114;922524;-77
2022/07/25 01:38:49;;;;;;;6.12;5.47;;;;;;;20.42;67.25;100235.28;465592;114;922691;-78
2022/07/25 01:39:54;;;;;;;5.35;4.92;;;;;;;20.42;67.30;100238.05;465276;114;922519;-77
2022/07/25 01:40:57;;;;;;;5.87;5.44;;;;;;;20.40;67.34;100236.39;465591;114;922462;-78
2022/07/25 01:42:00;;;;;;;5.44;4.92;;;;;;;20.40;67.38;100239.16;465543;114;923185;-77
2022/07/25 01:43:04;;;;;;;5.94;5.41;;;;;;;20.42;67.39;100238.05;465532;114;923000;-77
2022/07/25 01:44:07;;;;;;;6.08;5.22;;;;;;;20.42;67.32;100243.59;465591;114;923132;-77
2022/07/25 01:45:12;;;;;;;4.76;4.46;;;;;;;20.39;67.21;100240.30;465535;114;922500;-77
2022/07/25 01:46:16;;;;;;;5.61;5.13;;;;;;;20.37;67.19;100250.82;465510;114;922738;-77
2022/07/25 01:47:19;;;;;;;5.59;5.02;;;;;;;20.34;67.20;100243.08;465587;114;923283;-77
2022/07/25 01:48:22;;;;;;;5.69;5.17;;;;;;;20.33;67.25;100240.61;465569;114;922918;-77
2022/07/25 01:49:25;;;;;;;5.17;4.72;;;;;;;20.31;67.36;100240.89;465574;114;922496;-77
2022/07/25 01:50:30;;;;;;;4.73;4.42;;;;;;;20.31;67.49;100240.89;465451;114;922604;-77
2022/07/25 01:51:33;;;;;;;5.55;5.15;;;;;;;20.32;67.57;100241.72;465612;114;923052;-77
2022/07/25 01:52:36;;;;;;;6.17;5.53;;;;;;;20.34;67.57;100239.50;465588;114;922925;-78
2022/07/25 01:53:39;;;;;;;5.73;5.36;;;;;;;20.34;67.68;100251.38;465526;114;922624;-77
2022/07/25 01:54:44;;;;;;;5.31;4.93;;;;;;;20.36;67.66;100238.09;465329;114;922538;-77
2022/07/25 01:55:47;;;;;;;5.33;4.86;;;;;;;20.38;67.82;100255.25;465591;114;922580;-77
2022/07/25 01:56:50;;;;;;;5.50;5.11;;;;;;;20.39;67.75;100243.06;465605;114;922582;-77
2022/07/25 01:57:54;;;;;;;5.58;5.11;;;;;;;20.41;67.69;100245.52;465544;114;923393;-77
2022/07/25 01:58:57;;;;;;;7.89;5.54;;;;;;;20.42;67.51;100244.41;456706;114;922631;-77
2022/07/25 02:00:00;;;;;;;6.22;5.41;;;;;;;20.42;67.39;100243.59;457231;114;922664;-77
2022/07/25 02:01:03;;;;;;;4.83;4.42;;;;;;;20.41;67.30;100237.22;465625;114;923066;-77
2022/07/25 02:02:07;;;;;;;5.64;5.16;;;;;;;20.39;67.29;100233.93;465586;114;922987;-77
2022/07/25 02:03:28;;;;;;;5.75;5.34;;;;;;;20.37;67.16;100234.20;465515;114;923373;-77
2022/07/25 02:04:31;;;;;;;5.29;4.89;;;;;;;20.32;67.13;100237.02;465387;112;922540;-77
2022/07/25 02:05:35;;;;;;;5.59;5.19;;;;;;;20.28;67.10;100233.14;465577;114;923145;-77
2022/07/25 02:06:40;;;;;;;5.79;5.28;;;;;;;20.25;67.06;100242.00;465214;114;922546;-77
2022/07/25 02:07:42;;;;;;;4.77;4.46;;;;;;;20.23;67.00;100235.12;457313;116;922594;-77
2022/07/25 02:08:45;;;;;;;5.54;5.11;;;;;;;20.21;67.13;100243.70;457481;116;922530;-77
2022/07/25 02:09:49;;;;;;;5.59;5.28;;;;;;;20.19;67.16;100239.55;457408;114;922577;-77
2022/07/25 02:10:54;;;;;;;5.41;5.03;;;;;;;20.18;67.30;100238.72;457170;116;922602;-77
2022/07/25 02:11:57;;;;;;;4.96;4.58;;;;;;;20.19;67.41;100240.37;457314;116;923019;-77
2022/07/25 02:13:01;;;;;;;5.02;4.69;;;;;;;20.20;67.48;100242.05;457370;116;922948;-77
2022/07/25 02:14:04;;;;;;;5.47;4.99;;;;;;;20.20;67.29;100236.51;457317;116;922861;-77
2022/07/25 02:15:08;;;;;;;6.19;5.63;;;;;;;20.19;67.22;100245.92;462510;114;930520;-77
2022/07/25 02:16:11;;;;;;;10.30;5.29;;;;;;;20.17;67.10;100242.62;465400;114;923427;-77
2022/07/25 02:17:15;;;;;;;6.35;5.03;;;;;;;20.17;67.15;100244.56;465503;114;922755;-77
2022/07/25 02:18:18;;;;;;;5.40;4.79;;;;;;;20.14;67.00;100237.65;465427;114;922919;-77
2022/07/25 02:19:21;;;;;;;5.67;5.16;;;;;;;20.11;67.02;100243.77;465418;114;930624;-77
2022/07/25 02:20:24;;;;;;;5.29;4.89;;;;;;;20.10;66.99;100242.11;465457;114;922546;-77
2022/07/25 02:21:29;;;;;;;5.78;5.38;;;;;;;20.10;67.00;100244.05;465463;114;922673;-77
2022/07/25 02:22:31;;;;;;;5.67;5.18;;;;;;;20.09;67.01;100239.62;465491;114;923058;-77
2022/07/25 02:23:35;;;;;;;5.86;5.44;;;;;;;20.08;67.08;100240.73;465550;114;922606;-77
2022/07/25 02:24:39;;;;;;;5.16;4.81;;;;;;;20.08;67.25;100238.79;465416;114;923333;-77
2022/07/25 02:25:42;;;;;;;5.92;5.30;;;;;;;20.09;67.38;100240.45;465565;114;922897;-77
2022/07/25 02:26:45;;;;;;;6.32;5.79;;;;;;;20.09;67.38;100240.45;465537;114;922758;-77
2022/07/25 02:27:48;;;;;;;5.58;5.17;;;;;;;20.10;67.28;100236.58;465551;114;922597;-77
2022/07/25 02:28:51;;;;;;;5.75;5.24;;;;;;;20.11;67.21;100232.70;465391;114;922991;-77
2022/07/25 02:29:54;;;;;;;6.06;5.25;;;;;;;20.11;67.16;100243.77;464191;114;923622;-77
2022/07/25 02:30:57;;;;;;;6.49;4.97;;;;;;;20.11;67.23;100237.41;463114;114;922977;-76
2022/07/25 02:32:14;;;;;;;5.25;4.91;;;;;;;20.11;67.14;100234.64;463671;114;922650;31
2022/07/25 02:33:17;;;;;;;5.34;4.87;;;;;;;20.09;67.12;100240.45;443769;119;923168;-77
2022/07/25 02:34:20;;;;;;;5.73;5.32;;;;;;;20.08;67.09;100233.25;443889;119;922657;-77
2022/07/25 02:35:23;;;;;;;5.47;5.06;;;;;;;20.08;67.20;100237.95;443614;119;922595;-77
2022/07/25 02:36:26;;;;;;;5.22;4.87;;;;;;;20.06;67.17;100235.50;443559;119;922604;-77
2022/07/25 02:37:29;;;;;;;5.40;5.01;;;;;;;20.06;67.23;100241.03;443566;119;922933;-77
2022/07/25 02:38:32;;;;;;;5.25;4.86;;;;;;;20.06;67.29;100241.03;442380;119;922969;-77
2022/07/25 02:39:36;;;;;;;5.65;5.19;;;;;;;20.06;67.32;100238.27;442279;120;922461;-77
2022/07/25 02:40:38;;;;;;;5.06;4.72;;;;;;;20.07;67.43;100239.09;441976;119;923002;-77
2022/07/25 02:41:42;;;;;;;5.47;5.09;;;;;;;20.09;67.59;100245.16;441707;119;922794;-77
2022/07/25 02:42:45;;;;;;;5.71;5.01;;;;;;;20.11;67.69;100231.87;441611;119;923062;-77
2022/07/25 02:43:49;;;;;;;5.35;4.66;;;;;;;20.14;67.84;100240.42;441835;119;922563;-77
2022/07/25 02:44:52;;;;;;;4.90;4.45;;;;;;;20.17;67.82;100242.62;441797;119;922566;-77
2022/07/25 02:45:55;;;;;;;5.44;5.12;;;;;;;20.20;67.88;100242.05;441788;120;922631;-77
2022/07/25 02:46:58;;;;;;;5.43;5.10;;;;;;;20.23;67.88;100240.66;441817;119;923077;-77
2022/07/25 02:48:01;;;;;;;5.13;4.77;;;;;;;20.24;67.81;100236.75;430874;120;922917;-77
2022/07/25 02:49:04;;;;;;;5.74;5.33;;;;;;;20.25;67.75;100242.00;441782;120;922612;-77
2022/07/25 02:50:08;;;;;;;5.64;5.17;;;;;;;20.24;67.76;100237.58;441422;120;922555;-77
2022/07/25 02:51:13;;;;;;;6.01;5.58;;;;;;;20.24;67.66;100234.81;441129;119;922616;-77
2022/07/25 02:52:16;;;;;;;5.14;4.76;;;;;;;20.25;67.65;100238.41;442685;119;922925;-77
2022/07/25 02:53:19;;;;;;;5.31;4.81;;;;;;;20.25;67.65;100238.41;442687;120;922597;-77
2022/07/25 02:54:24;;;;;;;5.33;4.94;;;;;;;20.24;67.65;100231.20;439468;119;923222;-77
2022/07/25 02:55:27;;;;;;;5.86;5.36;;;;;;;20.24;67.67;100229.27;441943;119;922577;-77
2022/07/25 02:56:32;;;;;;;5.38;4.98;;;;;;;20.24;67.71;100226.50;440681;120;923084;-77
2022/07/25 02:57:35;;;;;;;5.64;5.22;;;;;;;20.25;67.73;100224.56;440813;120;923109;-77
2022/07/25 02:58:38;;;;;;;5.22;4.80;;;;;;;20.24;67.75;100228.44;440890;120;922585;-77
2022/07/25 02:59:42;;;;;;;5.76;5.32;;;;;;;20.24;67.81;100218.20;440799;120;922524;-77
2022/07/25 03:00:45;;;;;;;5.81;5.26;;;;;;;20.24;67.87;100218.20;440915;120;922687;-77
2022/07/25 03:01:48;;;;;;;6.42;6.03;;;;;;;20.25;67.91;100221.80;440835;120;923254;-77
2022/07/25 03:02:52;;;;;;;5.56;5.26;;;;;;;20.25;67.92;100225.39;440780;120;930510;-77
2022/07/25 03:03:55;;;;;;;5.81;5.31;;;;;;;20.26;68.02;100213.21;440845;120;922926;-77
2022/07/25 03:04:59;;;;;;;6.14;5.74;;;;;;;20.27;68.01;100209.33;440833;120;923048;-77
2022/07/25 03:06:02;;;;;;;5.74;4.74;;;;;;;20.28;68.18;100213.77;440939;120;922584;-77
2022/07/25 03:07:05;;;;;;;9.13;4.84;;;;;;;20.32;68.31;100222.34;444217;118;923102;-77
2022/07/25 03:08:08;;;;;;;5.39;5.09;;;;;;;20.36;68.41;100217.88;447990;118;923031;-77
2022/07/25 03:09:11;;;;;;;8.35;5.17;;;;;;;20.38;68.40;100210.95;448024;118;922594;-77
2022/07/25 03:10:15;;;;;;;5.64;5.23;;;;;;;20.44;68.47;100219.21;447978;117;923109;-77
2022/07/25 03:11:18;;;;;;;5.14;4.84;;;;;;;20.47;68.51;100224.98;447997;118;922555;-77
2022/07/25 03:12:21;;;;;;;5.23;4.84;;;;;;;20.51;68.46;100217.75;447909;118;922686;-77
2022/07/25 03:13:24;;;;;;;8.63;5.13;;;;;;;20.55;68.54;100220.78;448005;118;922618;-77
2022/07/25 03:14:27;;;;;;;6.06;5.49;;;;;;;20.59;68.49;100217.14;447883;118;922832;-77
2022/07/25 03:15:30;;;;;;;5.02;4.72;;;;;;;20.62;68.40;100219.32;442025;120;922519;-77
2022/07/25 03:16:33;;;;;;;5.27;4.92;;;;;;;20.65;68.33;100220.70;442023;119;922615;-77
2022/07/25 03:17:37;;;;;;;5.56;5.11;;;;;;;20.68;68.20;100225.64;443859;119;922539;-77
2022/07/25 03:18:40;;;;;;;6.21;5.53;;;;;;;20.69;68.09;100221.77;441968;120;922965;-77
2022/07/25 03:19:43;;;;;;;5.37;4.88;;;;;;;20.68;68.03;100220.10;443871;119;923148;-77
2022/07/25 03:20:46;;;;;;;6.99;5.54;;;;;;;20.69;68.02;100221.77;443872;119;922710;-77
2022/07/25 03:21:49;;;;;;;5.29;4.88;;;;;;;20.68;68.03;100220.94;442063;120;922522;-77
2022/07/25 03:22:53;;;;;;;5.58;5.18;;;;;;;20.70;68.07;100217.88;443859;118;922604;-77
2022/07/25 03:23:56;;;;;;;5.35;4.93;;;;;;;20.71;68.14;100219.54;441961;120;922427;-77
2022/07/25 03:24:59;;;;;;;6.53;5.07;;;;;;;20.74;68.19;100222.55;443882;119;923069;-77
2022/07/25 03:26:02;;;;;;;6.75;5.18;;;;;;;20.77;68.22;100221.98;443889;119;922686;-77
2022/07/25 03:27:06;;;;;;;5.42;5.09;;;;;;;20.80;68.16;100220.55;443804;119;923192;-77
2022/07/25 03:28:09;;;;;;;5.87;5.37;;;;;;;20.83;68.06;100217.22;442048;120;923120;-77
2022/07/25 03:29:12;;;;;;;5.99;5.49;;;;;;;20.85;68.11;100220.50;443853;119;922867;-77
2022/07/25 03:30:15;;;;;;;6.24;5.84;;;;;;;20.87;68.06;100218.28;441555;120;923063;-77
2022/07/25 03:31:18;;;;;;;5.76;5.00;;;;;;;20.89;68.12;100218.00;441970;120;930598;-77
2022/07/25 03:32:22;;;;;;;5.76;5.37;;;;;;;20.92;68.13;100220.17;443860;119;923040;-77
2022/07/25 03:33:25;;;;;;;6.02;5.63;;;;;;;20.95;68.12;100216.83;443223;119;923177;-77
2022/07/25 03:34:28;;;;;;;5.25;4.95;;;;;;;20.98;68.02;100216.23;449132;117;922598;-77
2022/07/25 03:35:31;;;;;;;5.66;5.26;;;;;;;21.00;67.98;100214.84;449239;118;922512;-77
2022/07/25 03:36:34;;;;;;;6.06;5.63;;;;;;;21.00;67.88;100217.61;449261;118;922565;-77
2022/07/25 03:37:37;;;;;;;5.89;5.50;;;;;;;21.00;67.73;100222.33;449262;118;922474;-77
2022/07/25 03:38:40;;;;;;;6.12;5.71;;;;;;;20.99;67.71;100213.18;449285;118;922451;-77
2022/07/25 03:39:43;;;;;;;5.83;5.44;;;;;;;20.99;67.66;100215.95;449285;118;922633;-77
2022/07/25 03:40:47;;;;;;;5.86;5.44;;;;;;;20.99;67.64;100221.49;449071;118;922933;-77
2022/07/25 03:42:12;;;;;;;5.79;5.39;;;;;;;20.98;67.65;100219.84;449062;118;922477;-77
2022/07/25 03:43:15;;;;;;;8.81;5.16;;;;;;;20.98;67.63;100224.55;449260;118;923109;-77
2022/07/25 03:44:19;;;;;;;6.17;5.72;;;;;;;;;;449307;118;923565;-77
2022/07/25 03:45:22;;;;;;;6.35;5.87;;;;;;;20.94;67.54;100223.48;449303;118;922541;-77
2022/07/25 03:46:25;;;;;;;6.33;5.88;;;;;;;20.92;67.52;100225.72;449204;118;922570;-77
2022/07/25 03:47:28;;;;;;;6.36;5.90;;;;;;;20.90;67.53;100223.23;449154;118;930946;-77
2022/07/25 03:48:31;;;;;;;6.47;6.08;;;;;;;20.89;67.54;100224.38;449312;118;922549;-77
2022/07/25 03:49:34;;;;;;;6.30;5.86;;;;;;;20.88;67.56;100228.25;449288;118;922899;-77
2022/07/25 03:50:38;;;;;;;5.94;5.46;;;;;;;20.88;67.58;100228.25;449306;118;922553;-77
2022/07/25 03:51:41;;;;;;;6.33;5.64;;;;;;;20.87;67.51;100225.77;449266;118;922550;-77
2022/07/25 03:52:44;;;;;;;6.90;6.36;;;;;;;20.85;67.49;100228.81;449258;118;923001;-77
2022/07/25 03:54:02;;;;;;;6.21;5.78;;;;;;;20.84;67.51;100229.93;442419;120;922672;-77
2022/07/25 03:55:08;;;;;;;6.31;5.61;;;;;;;20.85;67.61;100230.77;444081;118;923257;-77
2022/07/25 03:56:12;;;;;;;6.16;5.76;;;;;;;20.83;67.59;100235.79;449036;118;922992;-77
2022/07/25 03:57:15;;;;;;;6.49;6.00;;;;;;;20.83;67.58;100227.47;449208;118;922615;-77
2022/07/25 03:58:18;;;;;;;6.28;5.82;;;;;;;20.82;67.57;100229.41;449208;118;922939;-77
2022/07/25 03:59:21;;;;;;;6.53;5.97;;;;;;;20.83;67.54;100227.47;449199;118;923246;-77
2022/07/25 04:00:24;;;;;;;6.79;6.28;;;;;;;20.83;67.58;100228.30;449276;118;922693;-77
2022/07/25 04:01:27;;;;;;;7.19;6.72;;;;;;;20.84;67.66;100234.67;449275;118;923050;-77
2022/07/25 04:02:31;;;;;;;6.39;5.89;;;;;;;20.85;67.72;100231.59;449267;118;922564;-77
2022/07/25 04:03:34;;;;;;;7.19;6.51;;;;;;;20.87;67.73;100234.08;449252;118;922590;-75
2022/07/25 04:04:37;;;;;;;7.37;6.81;;;;;;;20.89;67.94;100232.69;449251;118;923005;-77
2022/07/25 04:05:41;;;;;;;6.53;5.95;;;;;;;20.89;67.94;100232.69;449268;118;922889;-77
2022/07/25 04:06:46;;;;;;;6.68;6.18;;;;;;;20.91;67.66;100226.83;441872;119;922578;-77
2022/07/25 04:07:49;;;;;;;6.50;6.01;;;;;;;20.90;67.70;100223.23;443904;117;922589;-77
2022/07/25 04:08:53;;;;;;;6.80;6.19;;;;;;;20.91;67.74;100230.42;450513;117;922521;-77
2022/07/25 04:09:56;;;;;;;6.42;5.95;;;;;;;20.92;67.75;100231.26;450453;117;922661;-77
2022/07/25 04:10:59;;;;;;;6.69;6.12;;;;;;;20.92;67.78;100225.72;450454;117;922455;-77
2022/07/25 04:12:02;;;;;;;7.45;6.86;;;;;;;20.93;67.82;100228.20;450516;117;922890;-77
2022/07/25 04:13:05;;;;;;;6.97;6.46;;;;;;;20.95;67.82;100230.69;450450;117;923698;-77
2022/07/25 04:14:09;;;;;;;7.62;6.87;;;;;;;20.97;67.84;100228.44;450497;117;923046;-77
2022/07/25 04:15:13;;;;;;;7.88;7.38;;;;;;;20.99;67.84;100232.58;446141;117;922618;-77
2022/07/25 04:16:18;;;;;;;7.43;6.53;;;;;;;21.00;67.84;100223.16;444663;118;922519;-77
2022/07/25 04:17:22;;;;;;;7.19;6.62;;;;;;;21.02;67.96;100226.44;444574;118;923100;-78
2022/07/25 04:18:28;;;;;;;6.73;6.12;;;;;;;21.06;67.94;100223.92;444613;117;922667;-77
2022/07/25 04:19:31;;;;;;;6.24;5.84;;;;;;;21.08;67.92;100216.13;444735;118;922953;-77
2022/07/25 04:20:36;;;;;;;6.94;6.32;;;;;;;21.10;67.90;100224.98;444684;118;930859;-77
2022/07/25 04:21:39;;;;;;;6.83;6.36;;;;;;;21.12;67.94;100220.78;444742;119;922673;-77
2022/07/25 04:22:42;;;;;;;5.93;5.39;;;;;;;21.15;67.93;100224.97;444812;118;922799;-77
2022/07/25 04:23:48;;;;;;;7.03;6.49;;;;;;;21.16;67.90;100218.30;444537;118;922565;-77
2022/07/25 04:24:51;;;;;;;6.79;6.25;;;;;;;21.18;67.94;100213.27;444748;118;922490;-77
2022/07/25 04:25:55;;;;;;;5.83;5.42;;;;;;;21.19;67.93;100215.76;444829;119;922574;-77
2022/07/25 04:26:58;;;;;;;6.14;5.69;;;;;;;21.21;67.93;100209.93;444721;118;922812;-77
2022/07/25 04:28:01;;;;;;;5.84;5.41;;;;;;;21.21;67.99;100207.98;444805;118;922911;-77
2022/07/25 04:29:04;;;;;;;6.09;5.58;;;;;;;21.23;68.05;100214.05;444858;119;922592;-77
2022/07/25 04:30:09;;;;;;;5.76;5.38;;;;;;;21.25;67.99;100215.70;448659;117;922532;-77
2022/07/25 04:31:12;;;;;;;5.80;5.41;;;;;;;21.25;68.02;100216.53;442752;119;923066;-77
2022/07/25 04:32:18;;;;;;;5.94;5.57;;;;;;;21.26;68.05;100215.42;442814;119;930548;-77
2022/07/25 04:33:22;;;;;;;5.53;5.17;;;;;;;21.27;68.06;100216.25;442424;119;930519;-77
2022/07/25 04:34:26;;;;;;;6.04;5.56;;;;;;;21.29;68.02;100219.53;450606;117;922841;-77
2022/07/25 04:35:29;;;;;;;4.87;4.55;;;;;;;21.29;68.07;100213.98;449578;118;922547;-77
2022/07/25 04:36:31;;;;;;;5.43;5.12;;;;;;;21.31;68.16;100214.53;449676;117;922527;-77
2022/07/25 04:37:36;;;;;;;5.24;4.76;;;;;;;21.33;68.12;100220.62;449639;118;923207;-77
2022/07/25 04:38:39;;;;;;;5.26;4.80;;;;;;;21.34;68.01;100216.70;451428;117;922566;-77
2022/07/25 04:39:42;;;;;;;5.33;4.94;;;;;;;21.35;67.94;100207.27;451500;117;922628;-77
2022/07/25 04:40:46;;;;;;;5.29;4.95;;;;;;;21.34;67.85;100209.20;449674;117;922634;-77
2022/07/25 04:41:49;;;;;;;5.22;4.92;;;;;;;21.35;67.82;100212.81;449616;118;922596;-77
2022/07/25 04:42:52;;;;;;;5.22;4.92;;;;;;;21.36;67.82;100217.23;449575;116;930545;-77
2022/07/25 04:43:55;;;;;;;5.17;4.87;;;;;;;21.38;67.91;100206.69;449678;117;922506;-77
2022/07/25 04:44:58;;;;;;;5.29;4.92;;;;;;;21.38;67.91;100206.69;449706;118;922629;-77
2022/07/25 04:46:01;;;;;;;5.61;5.15;;;;;;;21.41;67.74;100211.63;449662;118;922599;-77
2022/07/25 04:47:05;;;;;;;6.06;5.32;;;;;;;21.42;67.82;100205.80;449639;118;922684;-77
2022/07/25 04:48:08;;;;;;;5.58;5.18;;;;;;;21.43;67.79;100206.63;449690;118;922566;-77
2022/07/25 04:49:11;;;;;;;5.34;4.94;;;;;;;21.45;67.87;100207.97;449574;117;923027;-77
2022/07/25 04:50:14;;;;;;;5.12;4.72;;;;;;;21.47;67.85;100216.00;449580;117;923133;-77
2022/07/25 04:51:18;;;;;;;5.66;5.28;;;;;;;21.50;67.85;100204.33;449591;118;923467;-77
2022/07/25 04:52:21;;;;;;;5.84;5.31;;;;;;;21.53;67.84;100206.50;449559;118;922570;-79